Time;durP1;ratioP1;P1;durP2;ratioP2;P2;SDS_P1;SDS_P2;PMS_P1;PMS_P2;Temp;Humidity;BMP_temperature;BMP_pressure;BME280_temperature;BME280_humidity;BME280_pressure;Samples;Min_cycle;Max_cycle;Signal;HPM_P1;HPM_P2
2023/07/21 00:01:28;;;;;;;4.07;2.40;;;;;;;;;;5056622;28;20637;-69
2023/07/21 00:03:56;;;;;;;3.10;2.57;;;;;;;;;;5068650;28;20605;-69
2023/07/21 00:06:24;;;;;;;5.90;2.67;;;;;;;;;;5071443;28;20994;-69
2023/07/21 00:08:54;;;;;;;4.53;2.90;;;;;;;;;;5071193;28;20621;-68
2023/07/21 00:11:23;;;;;;;2.77;2.57;;;;;;;;;;5061685;28;20666;-68
2023/07/21 00:13:52;;;;;;;5.00;2.70;;;;;;;;;;5070613;28;21192;-68
2023/07/21 00:16:20;;;;;;;3.47;3.03;;;;;;;;;;5071799;28;20599;-68
2023/07/21 00:18:49;;;;;;;3.10;2.57;;;;;;;;;;5070706;28;21177;-68
2023/07/21 00:21:17;;;;;;;2.77;2.53;;;;;;;;;;5071066;28;20650;-68
2023/07/21 00:23:46;;;;;;;7.27;2.17;;;;;;;;;;5071576;28;20602;-68
2023/07/21 00:26:15;;;;;;;4.10;2.60;;;;;;;;;;5071613;28;20660;-68
2023/07/21 00:28:44;;;;;;;6.90;2.70;;;;;;;;;;5071968;28;20596;-69
2023/07/21 00:31:14;;;;;;;3.00;2.70;;;;;;;;;;5072331;28;20614;-68
2023/07/21 00:33:42;;;;;;;2.50;2.30;;;;;;;;;;5071887;28;20952;-69
2023/07/21 00:36:12;;;;;;;4.13;2.50;;;;;;;;;;5070180;28;20577;-68
2023/07/21 00:38:40;;;;;;;2.50;2.30;;;;;;;;;;5056932;28;20619;-68
2023/07/21 00:41:08;;;;;;;3.93;2.70;;;;;;;;;;5049912;28;20615;-68
2023/07/21 00:43:37;;;;;;;2.10;2.00;;;;;;;;;;5050311;28;20615;-68
2023/07/21 00:46:05;;;;;;;4.53;2.37;;;;;;;;;;5050589;28;20653;-68
2023/07/21 00:48:36;;;;;;;2.73;2.27;;;;;;;;;;5050214;28;20891;-68
2023/07/21 00:51:06;;;;;;;2.60;2.40;;;;;;;;;;5068108;28;20623;-68
2023/07/21 00:53:35;;;;;;;2.30;2.07;;;;;;;;;;5070431;28;20630;-67
2023/07/21 00:56:03;;;;;;;3.80;2.23;;;;;;;;;;5071023;28;20675;-68
2023/07/21 00:58:32;;;;;;;6.10;2.50;;;;;;;;;;5071425;28;20710;-68
2023/07/21 01:01:01;;;;;;;6.40;2.57;;;;;;;;;;5069970;28;20630;-68
2023/07/21 01:03:30;;;;;;;4.73;2.10;;;;;;;;;;5070091;28;20614;-68
2023/07/21 01:06:02;;;;;;;4.03;2.00;;;;;;;;;;5069703;28;20658;-68
2023/07/21 01:08:30;;;;;;;3.00;2.30;;;;;;;;;;5071158;28;20637;-68
2023/07/21 01:10:59;;;;;;;2.13;2.03;;;;;;;;;;5069424;28;20701;-68
2023/07/21 01:13:27;;;;;;;2.50;2.23;;;;;;;;;;5070921;28;20625;-68
2023/07/21 01:15:57;;;;;;;3.70;2.30;;;;;;;;;;5070142;28;20630;-67
2023/07/21 01:18:26;;;;;;;2.70;2.50;;;;;;;;;;5070882;28;20589;-68
2023/07/21 01:20:55;;;;;;;3.73;2.60;;;;;;;;;;5069998;28;20630;-69
2023/07/21 01:23:26;;;;;;;2.90;2.50;;;;;;;;;;5070745;28;20683;-69
2023/07/21 01:25:58;;;;;;;2.80;2.17;;;;;;;;;;5070357;28;20646;-69
2023/07/21 01:28:27;;;;;;;6.10;2.10;;;;;;;;;;5063519;28;20643;-67
2023/07/21 01:30:56;;;;;;;2.37;2.17;;;;;;;;;;5069156;28;20633;-67
2023/07/21 01:33:25;;;;;;;5.80;2.60;;;;;;;;;;5070319;28;20679;-68
2023/07/21 01:35:53;;;;;;;2.30;2.10;;;;;;;;;;5070221;28;20600;-68
2023/07/21 01:38:23;;;;;;;4.60;2.20;;;;;;;;;;5071027;28;20610;-67
2023/07/21 01:40:51;;;;;;;2.60;2.10;;;;;;;;;;5074147;28;20633;-67
2023/07/21 01:43:23;;;;;;;3.70;2.00;;;;;;;;;;5074354;28;20592;-67
2023/07/21 01:45:51;;;;;;;2.60;2.40;;;;;;;;;;5072609;28;20622;-68
2023/07/21 01:48:19;;;;;;;3.33;2.03;;;;;;;;;;5074089;28;20601;-67
2023/07/21 01:50:48;;;;;;;4.00;2.93;;;;;;;;;;5073753;28;20954;-67
2023/07/21 01:53:20;;;;;;;4.17;2.50;;;;;;;;;;5073279;28;21171;-67
2023/07/21 01:55:51;;;;;;;2.70;2.00;;;;;;;;;;5073650;28;20939;-68
2023/07/21 01:58:21;;;;;;;3.93;2.60;;;;;;;;;;5072592;28;21028;-69
2023/07/21 02:00:50;;;;;;;2.60;2.40;;;;;;;;;;5072275;28;20626;-68
2023/07/21 02:03:19;;;;;;;2.57;2.47;;;;;;;;;;5071029;28;20621;-68
2023/07/21 02:05:48;;;;;;;2.53;2.33;;;;;;;;;;5065850;28;20626;-69
2023/07/21 02:08:17;;;;;;;14.53;3.10;;;;;;;;;;5073130;28;21186;-68
2023/07/21 02:10:45;;;;;;;2.07;1.97;;;;;;;;;;5068040;28;20742;-69
2023/07/21 02:13:27;;;;;;;6.43;2.17;;;;;;;;;;5069928;28;20591;-68
2023/07/21 02:15:55;;;;;;;6.77;2.60;;;;;;;;;;5072473;28;20648;-68
2023/07/21 02:18:23;;;;;;;2.43;2.30;;;;;;;;;;5072225;28;20595;-68
2023/07/21 02:20:51;;;;;;;3.17;2.57;;;;;;;;;;5072050;28;20988;-68
2023/07/21 02:23:19;;;;;;;5.43;3.07;;;;;;;;;;5073899;28;20630;-68
2023/07/21 02:25:47;;;;;;;4.43;2.33;;;;;;;;;;5073709;28;20723;-69
2023/07/21 02:28:16;;;;;;;2.20;1.93;;;;;;;;;;5071998;28;20989;-68
2023/07/21 02:30:45;;;;;;;2.90;2.27;;;;;;;;;;5072090;28;20591;-70
2023/07/21 02:33:15;;;;;;;4.67;2.40;;;;;;;;;;5073705;28;20621;-68
2023/07/21 02:35:45;;;;;;;2.23;2.10;;;;;;;;;;5073470;28;20578;-68
2023/07/21 02:38:13;;;;;;;2.50;2.40;;;;;;;;;;5067603;28;20615;-68
2023/07/21 02:40:42;;;;;;;2.50;2.30;;;;;;;;;;5051788;28;20590;-68
2023/07/21 02:43:10;;;;;;;2.03;1.93;;;;;;;;;;5053510;28;20602;-68
2023/07/21 02:45:38;;;;;;;2.77;2.50;;;;;;;;;;5052993;28;20593;-68
2023/07/21 02:48:09;;;;;;;3.33;2.60;;;;;;;;;;5052642;28;21036;-68
2023/07/21 02:50:38;;;;;;;2.60;2.40;;;;;;;;;;5052863;28;20560;-68
2023/07/21 02:53:06;;;;;;;2.50;2.23;;;;;;;;;;5057866;28;21245;-68
2023/07/21 02:55:35;;;;;;;2.50;2.40;;;;;;;;;;5071389;28;20974;-68
2023/07/21 02:58:03;;;;;;;2.80;2.60;;;;;;;;;;5072636;28;21037;-68
2023/07/21 03:00:36;;;;;;;2.80;2.57;;;;;;;;;;5070982;28;20614;-68
2023/07/21 03:03:20;;;;;;;2.20;2.10;;;;;;;;;;5070037;28;20609;-69
2023/07/21 03:05:51;;;;;;;4.63;2.17;;;;;;;;;;5070027;28;21173;-69
2023/07/21 03:08:28;;;;;;;7.60;2.43;;;;;;;;;;5072379;28;20624;-69
2023/07/21 03:10:59;;;;;;;2.40;2.10;;;;;;;;;;5070436;28;20647;-68
2023/07/21 03:13:30;;;;;;;3.40;2.30;;;;;;;;;;5070803;28;21151;-69
2023/07/21 03:15:58;;;;;;;2.33;2.17;;;;;;;;;;5071109;28;20624;-68
2023/07/21 03:18:32;;;;;;;2.70;2.50;;;;;;;;;;5071621;28;20613;-68
2023/07/21 03:21:20;;;;;;;2.40;2.20;;;;;;;;;;5059589;28;20644;-69
2023/07/21 03:23:50;;;;;;;2.53;2.33;;;;;;;;;;5070865;28;20982;-69
2023/07/21 03:26:26;;;;;;;2.87;2.63;;;;;;;;;;5072012;28;20587;-70
2023/07/21 03:28:55;;;;;;;4.00;2.40;;;;;;;;;;5066126;28;20646;-68
2023/07/21 03:31:25;;;;;;;2.40;2.20;;;;;;;;;;5070604;28;21364;-68
2023/07/21 03:34:04;;;;;;;2.53;2.30;;;;;;;;;;5071739;28;20598;-68
2023/07/21 03:36:34;;;;;;;3.77;2.40;;;;;;;;;;5072251;28;20614;-68
2023/07/21 03:39:02;;;;;;;3.10;2.37;;;;;;;;;;5070644;28;20626;-68
2023/07/21 03:41:32;;;;;;;2.83;2.40;;;;;;;;;;5069886;28;20680;-68
2023/07/21 03:44:00;;;;;;;2.40;2.20;;;;;;;;;;5070319;28;20976;-68
2023/07/21 03:46:29;;;;;;;2.67;2.47;;;;;;;;;;5070003;28;20600;-69
2023/07/21 03:49:27;;;;;;;2.63;2.43;;;;;;;;;;5039992;28;21096;-68
2023/07/21 03:52:02;;;;;;;8.20;3.07;;;;;;;;;;5069751;28;20601;-68
2023/07/21 03:54:30;;;;;;;2.80;2.60;;;;;;;;;;5069858;28;20619;-68
2023/07/21 03:56:59;;;;;;;2.73;2.53;;;;;;;;;;5070915;28;20633;-68
2023/07/21 03:59:29;;;;;;;3.60;2.30;;;;;;;;;;5071067;28;21087;-68
2023/07/21 04:01:57;;;;;;;6.60;2.10;;;;;;;;;;5069274;28;21246;-69
2023/07/21 04:04:25;;;;;;;2.37;2.27;;;;;;;;;;5068220;28;21194;-68
2023/07/21 04:06:55;;;;;;;5.23;2.10;;;;;;;;;;5069377;28;20600;-68
2023/07/21 04:09:23;;;;;;;3.83;2.53;;;;;;;;;;5071186;28;20603;-68
2023/07/21 04:11:52;;;;;;;5.90;2.57;;;;;;;;;;5062776;28;20656;-68
2023/07/21 04:14:20;;;;;;;2.60;2.50;;;;;;;;;;5064330;28;21162;-68
2023/07/21 04:16:48;;;;;;;3.00;2.70;;;;;;;;;;5070513;28;20632;-68
2023/07/21 04:19:17;;;;;;;2.70;2.50;;;;;;;;;;5046602;28;20612;-68
2023/07/21 04:21:46;;;;;;;2.80;2.60;;;;;;;;;;5055508;28;20687;-68
2023/07/21 04:24:16;;;;;;;2.27;2.17;;;;;;;;;;5070572;28;20593;-68
2023/07/21 04:26:44;;;;;;;2.40;2.27;;;;;;;;;;5070219;28;20605;-70
2023/07/21 04:29:12;;;;;;;3.00;2.20;;;;;;;;;;5070008;28;20636;-68
2023/07/21 04:31:42;;;;;;;7.10;2.67;;;;;;;;;;5070541;28;20563;-68
2023/07/21 04:34:15;;;;;;;7.53;2.60;;;;;;;;;;5070210;28;20583;-71
2023/07/21 04:36:48;;;;;;;3.07;2.77;;;;;;;;;;5069995;28;21358;-71
2023/07/21 04:39:36;;;;;;;2.30;2.10;;;;;;;;;;5066622;28;20594;-72
2023/07/21 04:42:05;;;;;;;6.83;2.27;;;;;;;;;;5049894;28;20564;-71
2023/07/21 04:44:34;;;;;;;2.47;1.87;;;;;;;;;;5049418;28;20614;-71
2023/07/21 04:47:04;;;;;;;2.43;2.23;;;;;;;;;;5049666;28;20929;-71
2023/07/21 04:49:37;;;;;;;2.57;2.40;;;;;;;;;;5048820;28;20575;-72
2023/07/21 04:52:06;;;;;;;10.70;2.73;;;;;;;;;;5056610;28;20604;-71
2023/07/21 04:54:37;;;;;;;2.30;2.10;;;;;;;;;;5069029;28;20683;-72
2023/07/21 04:57:06;;;;;;;2.57;2.37;;;;;;;;;;5070273;28;20614;-72
2023/07/21 04:59:34;;;;;;;3.50;2.50;;;;;;;;;;5068848;28;20616;-71
2023/07/21 05:02:03;;;;;;;3.33;2.33;;;;;;;;;;5048191;28;20633;-71
2023/07/21 05:04:32;;;;;;;5.20;2.87;;;;;;;;;;5068903;28;20605;-71
2023/07/21 05:07:01;;;;;;;2.40;2.20;;;;;;;;;;5066856;28;20991;-71
2023/07/21 05:09:29;;;;;;;2.53;2.37;;;;;;;;;;5068089;28;20647;-71
2023/07/21 05:12:01;;;;;;;5.23;2.80;;;;;;;;;;5069847;28;20602;-71
2023/07/21 05:14:50;;;;;;;3.47;2.53;;;;;;;;;;5069462;28;20602;-71
2023/07/21 05:17:41;;;;;;;6.90;2.13;;;;;;;;;;5074294;28;20608;-71
2023/07/21 05:20:21;;;;;;;2.63;2.43;;;;;;;;;;5073225;28;21108;-71
2023/07/21 05:23:11;;;;;;;2.77;2.60;;;;;;;;;;5072686;28;20602;-71
2023/07/21 05:25:43;;;;;;;3.90;2.60;;;;;;;;;;5074022;28;20609;-72
2023/07/21 05:28:14;;;;;;;2.93;2.40;;;;;;;;;;5069878;28;20662;-71
2023/07/21 05:30:46;;;;;;;4.37;2.57;;;;;;;;;;5070430;28;20577;-71
2023/07/21 05:33:18;;;;;;;5.40;2.87;;;;;;;;;;5070949;28;20968;-71
2023/07/21 05:35:47;;;;;;;3.13;2.80;;;;;;;;;;5072576;28;20630;-72
2023/07/21 05:38:23;;;;;;;2.37;2.27;;;;;;;;;;5072429;28;20610;-71
2023/07/21 05:40:57;;;;;;;4.43;2.63;;;;;;;;;;5073606;28;20617;-71
2023/07/21 05:43:29;;;;;;;3.63;2.70;;;;;;;;;;5071279;28;20606;-71
2023/07/21 05:45:57;;;;;;;2.87;2.67;;;;;;;;;;5072126;28;20632;-71
2023/07/21 05:48:25;;;;;;;5.30;2.77;;;;;;;;;;5071785;28;20714;-71
2023/07/21 05:50:56;;;;;;;4.10;2.20;;;;;;;;;;5072771;28;20590;-71
2023/07/21 05:53:24;;;;;;;2.60;2.40;;;;;;;;;;5074461;28;20618;-69
2023/07/21 05:55:52;;;;;;;3.20;2.80;;;;;;;;;;5089060;28;20657;-67
2023/07/21 05:58:35;;;;;;;3.00;2.80;;;;;;;;;;5071927;28;20633;-67
2023/07/21 06:01:03;;;;;;;5.73;3.20;;;;;;;;;;5092652;28;20598;-67
2023/07/21 06:03:31;;;;;;;14.90;3.00;;;;;;;;;;5089928;28;20629;-68
2023/07/21 06:06:01;;;;;;;3.93;3.13;;;;;;;;;;5084692;28;20704;-71
2023/07/21 06:08:53;;;;;;;2.90;2.70;;;;;;;;;;5088623;28;20665;-71
2023/07/21 06:11:41;;;;;;;6.10;3.10;;;;;;;;;;5114763;22;20712;-70
2023/07/21 06:14:21;;;;;;;3.40;3.10;;;;;;;;;;5073189;28;20633;-70
2023/07/21 06:16:56;;;;;;;5.50;2.90;;;;;;;;;;5095509;28;20616;-69
2023/07/21 06:19:25;;;;;;;2.87;2.67;;;;;;;;;;5148854;22;20787;-86
2023/07/21 06:21:54;;;;;;;5.23;2.40;;;;;;;;;;5079533;23;20682;-74
2023/07/21 06:24:22;;;;;;;3.73;3.10;;;;;;;;;;5073370;28;20651;-74
2023/07/21 06:26:51;;;;;;;3.23;3.03;;;;;;;;;;5056215;28;20620;-73
2023/07/21 06:29:19;;;;;;;3.00;2.80;;;;;;;;;;5071608;28;20634;-73
2023/07/21 06:31:49;;;;;;;3.50;3.20;;;;;;;;;;5082909;28;21017;-72
2023/07/21 06:34:36;;;;;;;3.33;2.90;;;;;;;;;;5085440;28;20682;-72
2023/07/21 06:37:07;;;;;;;3.00;2.70;;;;;;;;;;5085402;28;20736;-72
2023/07/21 06:39:57;;;;;;;3.03;2.83;;;;;;;;;;5072647;28;20631;-71
2023/07/21 06:42:44;;;;;;;5.67;3.17;;;;;;;;;;5077356;28;20752;-72
2023/07/21 06:45:33;;;;;;;3.10;2.90;;;;;;;;;;5074559;28;20582;-73
2023/07/21 06:48:25;;;;;;;6.03;2.90;;;;;;;;;;5044828;28;20665;-71
2023/07/21 06:51:00;;;;;;;3.73;3.53;;;;;;;;;;5073615;28;20580;-73
2023/07/21 06:53:28;;;;;;;6.30;3.23;;;;;;;;;;5072307;28;20651;-71
2023/07/21 06:55:57;;;;;;;2.87;2.67;;;;;;;;;;5073258;28;20610;-73
2023/07/21 06:58:25;;;;;;;2.70;2.60;;;;;;;;;;5071917;28;20618;-72
2023/07/21 07:00:56;;;;;;;3.37;3.03;;;;;;;;;;5070783;28;20614;-75
2023/07/21 07:03:26;;;;;;;3.53;3.23;;;;;;;;;;5072145;28;20589;-72
2023/07/21 07:05:54;;;;;;;5.53;2.80;;;;;;;;;;5071523;28;21187;-73
2023/07/21 07:08:22;;;;;;;3.17;2.97;;;;;;;;;;5073689;28;20589;-72
2023/07/21 07:10:51;;;;;;;3.10;2.90;;;;;;;;;;5071609;28;20715;-71
2023/07/21 07:13:19;;;;;;;5.33;3.10;;;;;;;;;;5042272;28;20738;-72
2023/07/21 07:15:49;;;;;;;6.10;4.00;;;;;;;;;;5031958;28;21259;-72
2023/07/21 07:18:18;;;;;;;3.60;3.17;;;;;;;;;;5052140;28;21125;-71
2023/07/21 07:20:51;;;;;;;3.30;3.10;;;;;;;;;;5052020;28;20665;-73
2023/07/21 07:23:19;;;;;;;3.23;3.03;;;;;;;;;;5054101;28;20626;-71
2023/07/21 07:25:48;;;;;;;4.23;4.00;;;;;;;;;;5056598;28;20709;-69
2023/07/21 07:28:17;;;;;;;4.60;3.90;;;;;;;;;;5065461;28;20682;-69
2023/07/21 07:30:46;;;;;;;3.40;3.20;;;;;;;;;;5050397;28;20750;-71
2023/07/21 07:33:15;;;;;;;3.57;3.40;;;;;;;;;;5047495;28;20632;-68
2023/07/21 07:35:49;;;;;;;3.13;2.90;;;;;;;;;;5052475;28;20582;-68
2023/07/21 07:38:26;;;;;;;3.47;3.27;;;;;;;;;;5053013;28;20576;-69
2023/07/21 07:40:55;;;;;;;3.40;3.10;;;;;;;;;;5055912;28;20592;-68
2023/07/21 07:43:23;;;;;;;2.93;2.73;;;;;;;;;;5056733;28;20633;-69
2023/07/21 07:45:51;;;;;;;3.10;2.90;;;;;;;;;;5052456;28;20632;-70
2023/07/21 07:48:22;;;;;;;3.33;3.03;;;;;;;;;;5040695;28;21185;-71
2023/07/21 07:50:51;;;;;;;2.97;2.83;;;;;;;;;;5040081;28;20635;-71
2023/07/21 07:53:21;;;;;;;3.77;3.50;;;;;;;;;;5039415;28;20639;-71
2023/07/21 07:55:49;;;;;;;5.73;3.27;;;;;;;;;;5047732;28;20968;-72
2023/07/21 07:58:17;;;;;;;3.07;2.97;;;;;;;;;;5053587;28;21271;-73
2023/07/21 08:00:45;;;;;;;3.30;3.00;;;;;;;;;;5056784;28;20710;-72
2023/07/21 08:03:13;;;;;;;3.00;2.90;;;;;;;;;;5052956;28;20614;-73
2023/07/21 08:05:42;;;;;;;5.23;3.37;;;;;;;;;;5055695;28;20644;-74
2023/07/21 08:08:10;;;;;;;4.50;3.20;;;;;;;;;;5053597;28;21189;-74
2023/07/21 08:10:41;;;;;;;3.37;3.00;;;;;;;;;;5047599;28;21049;-74
2023/07/21 08:13:09;;;;;;;6.33;3.03;;;;;;;;;;5056250;28;20652;-72
2023/07/21 08:15:37;;;;;;;3.77;3.30;;;;;;;;;;5055278;28;20624;-73
2023/07/21 08:18:05;;;;;;;3.60;3.30;;;;;;;;;;5052346;28;20671;-73
2023/07/21 08:20:34;;;;;;;3.90;3.60;;;;;;;;;;5070289;28;21113;-71
2023/07/21 08:23:02;;;;;;;4.77;3.50;;;;;;;;;;5062860;28;21177;-72
2023/07/21 08:25:30;;;;;;;5.00;3.23;;;;;;;;;;5063599;28;20647;-72
2023/07/21 08:28:03;;;;;;;4.20;3.80;;;;;;;;;;5056709;28;20710;-74
2023/07/21 08:30:31;;;;;;;3.80;3.50;;;;;;;;;;5052534;28;21035;-75
2023/07/21 08:32:59;;;;;;;3.40;3.20;;;;;;;;;;5050875;28;21169;-74
2023/07/21 08:35:28;;;;;;;6.20;3.33;;;;;;;;;;5054517;28;21153;-74
2023/07/21 08:37:56;;;;;;;2.83;2.60;;;;;;;;;;5052382;28;20676;-75
2023/07/21 08:40:25;;;;;;;2.90;2.80;;;;;;;;;;5053521;28;20615;-75
2023/07/21 08:42:54;;;;;;;3.30;3.20;;;;;;;;;;5057067;28;20690;-74
2023/07/21 08:45:24;;;;;;;3.10;2.90;;;;;;;;;;5056769;28;20698;-73
2023/07/21 08:47:52;;;;;;;2.87;2.60;;;;;;;;;;5050416;28;20585;-75
2023/07/21 08:50:21;;;;;;;3.03;2.93;;;;;;;;;;5052562;28;20661;-75
2023/07/21 08:52:49;;;;;;;3.33;3.13;;;;;;;;;;5052889;28;20968;-75
2023/07/21 08:55:17;;;;;;;3.67;3.37;;;;;;;;;;5052031;28;20696;-74
2023/07/21 08:57:46;;;;;;;5.30;2.80;;;;;;;;;;5051616;28;20961;-73
2023/07/21 09:00:15;;;;;;;3.50;3.20;;;;;;;;;;5050203;28;20633;-72
2023/07/21 09:02:48;;;;;;;3.30;3.20;;;;;;;;;;5049928;28;21176;-71
2023/07/21 09:05:17;;;;;;;3.40;3.20;;;;;;;;;;5050422;28;20579;-75
2023/07/21 09:07:47;;;;;;;3.10;3.00;;;;;;;;;;5049193;28;20671;-73
2023/07/21 09:10:28;;;;;;;2.93;2.83;;;;;;;;;;5050733;28;20720;-73
2023/07/21 09:12:56;;;;;;;3.20;3.00;;;;;;;;;;5050033;28;20695;-74
2023/07/21 09:15:24;;;;;;;7.70;3.30;;;;;;;;;;5051382;28;20607;-73
2023/07/21 09:17:54;;;;;;;2.93;2.83;;;;;;;;;;5050693;28;21006;-75
2023/07/21 09:20:23;;;;;;;3.50;3.30;;;;;;;;;;5050245;28;20965;-76
2023/07/21 09:22:51;;;;;;;3.60;3.10;;;;;;;;;;5050407;28;20587;-75
2023/07/21 09:25:20;;;;;;;3.13;3.03;;;;;;;;;;5049220;28;20619;-74
2023/07/21 09:27:54;;;;;;;3.20;3.00;;;;;;;;;;5049994;28;20621;-74
2023/07/21 09:30:22;;;;;;;3.43;3.10;;;;;;;;;;5045288;28;21065;-74
2023/07/21 09:32:53;;;;;;;3.50;3.30;;;;;;;;;;5050465;28;20619;-74
2023/07/21 09:35:24;;;;;;;3.10;3.00;;;;;;;;;;5056529;28;20678;-72
2023/07/21 09:37:53;;;;;;;3.70;3.50;;;;;;;;;;5045745;28;20699;-70
2023/07/21 09:40:27;;;;;;;3.43;3.23;;;;;;;;;;5042542;28;20628;-69
2023/07/21 09:42:56;;;;;;;3.90;3.70;;;;;;;;;;5032302;28;20632;-69
2023/07/21 09:45:25;;;;;;;3.40;3.10;;;;;;;;;;5033112;28;20630;-69
2023/07/21 09:47:54;;;;;;;2.80;2.70;;;;;;;;;;5037279;28;20621;-69
2023/07/21 09:50:24;;;;;;;3.40;3.30;;;;;;;;;;5034216;28;20660;-69
2023/07/21 09:52:55;;;;;;;3.77;3.47;;;;;;;;;;5031978;28;21189;-69
2023/07/21 09:55:24;;;;;;;3.60;3.40;;;;;;;;;;5032060;28;20604;-69
2023/07/21 09:57:53;;;;;;;3.30;3.20;;;;;;;;;;5039894;28;20774;-69
2023/07/21 10:00:26;;;;;;;3.30;3.00;;;;;;;;;;5039403;28;20624;-68
2023/07/21 10:02:54;;;;;;;4.00;3.77;;;;;;;;;;5051236;28;20595;-68
2023/07/21 10:05:24;;;;;;;3.80;3.43;;;;;;;;;;5052739;28;20718;-69
2023/07/21 10:07:54;;;;;;;3.20;3.03;;;;;;;;;;5048532;28;21180;-68
2023/07/21 10:10:23;;;;;;;4.10;3.20;;;;;;;;;;5039555;28;20674;-69
2023/07/21 10:12:52;;;;;;;3.47;3.27;;;;;;;;;;5049735;28;20622;-68
2023/07/21 10:15:21;;;;;;;3.83;3.63;;;;;;;;;;5056211;28;20615;-68
2023/07/21 10:17:57;;;;;;;3.37;3.07;;;;;;;;;;5055882;28;20603;-68
2023/07/21 10:20:39;;;;;;;3.67;3.37;;;;;;;;;;5055377;28;20616;-69
2023/07/21 10:23:08;;;;;;;6.43;3.13;;;;;;;;;;5055299;28;21201;-68
2023/07/21 10:25:49;;;;;;;4.50;3.30;;;;;;;;;;5056147;28;20621;-68
2023/07/21 10:28:23;;;;;;;3.57;3.37;;;;;;;;;;5054840;28;20580;-69
2023/07/21 10:30:52;;;;;;;3.30;3.03;;;;;;;;;;5051791;28;20982;-69
2023/07/21 10:33:21;;;;;;;3.63;3.43;;;;;;;;;;5049370;28;20684;-68
2023/07/21 10:35:51;;;;;;;3.60;3.30;;;;;;;;;;5055313;28;20988;-68
2023/07/21 10:38:22;;;;;;;3.60;3.30;;;;;;;;;;5056314;28;20649;-69
2023/07/21 10:40:50;;;;;;;3.57;3.27;;;;;;;;;;5053064;28;21114;-68
2023/07/21 10:43:18;;;;;;;3.63;3.40;;;;;;;;;;5048671;28;20642;-68
2023/07/21 10:45:53;;;;;;;4.87;3.50;;;;;;;;;;5044488;28;20630;-68
2023/07/21 10:48:25;;;;;;;4.40;3.60;;;;;;;;;;5035792;28;20607;-69
2023/07/21 10:50:57;;;;;;;9.50;3.70;;;;;;;;;;5044684;28;20639;-69
2023/07/21 10:53:26;;;;;;;4.50;4.23;;;;;;;;;;5042614;28;20736;-69
2023/07/21 10:55:55;;;;;;;4.83;3.33;;;;;;;;;;5041209;28;20620;-68
2023/07/21 10:58:23;;;;;;;3.43;3.20;;;;;;;;;;5047604;28;20626;-69
2023/07/21 11:00:52;;;;;;;3.70;3.40;;;;;;;;;;5045493;28;20630;-69
2023/07/21 11:03:21;;;;;;;3.40;3.10;;;;;;;;;;5039110;28;20628;-69
2023/07/21 11:05:49;;;;;;;3.37;3.17;;;;;;;;;;5043410;28;21026;-69
2023/07/21 11:08:27;;;;;;;3.57;3.27;;;;;;;;;;5038774;28;20786;-68
2023/07/21 11:10:56;;;;;;;3.20;3.00;;;;;;;;;;5034194;28;20666;-69
2023/07/21 11:13:24;;;;;;;3.17;3.07;;;;;;;;;;5041939;28;20631;-69
2023/07/21 11:15:53;;;;;;;3.13;3.03;;;;;;;;;;5038973;28;20725;-69
2023/07/21 11:18:21;;;;;;;3.30;3.20;;;;;;;;;;5043759;28;20642;-69
2023/07/21 11:20:50;;;;;;;7.07;3.07;;;;;;;;;;5037804;28;20658;-69
2023/07/21 11:23:19;;;;;;;3.20;2.87;;;;;;;;;;5038477;28;20969;-69
2023/07/21 11:26:06;;;;;;;3.40;3.20;;;;;;;;;;5044227;28;20632;-69
2023/07/21 11:28:34;;;;;;;3.30;3.10;;;;;;;;;;5049546;28;21218;-69
2023/07/21 11:31:03;;;;;;;3.67;3.47;;;;;;;;;;5049958;28;20638;-69
2023/07/21 11:33:41;;;;;;;6.60;3.27;;;;;;;;;;5052859;28;20625;-69
2023/07/21 11:36:13;;;;;;;4.03;3.63;;;;;;;;;;5051765;28;20590;-69
2023/07/21 11:38:42;;;;;;;3.37;3.00;;;;;;;;;;5050836;28;20627;-69
2023/07/21 11:41:11;;;;;;;3.27;3.07;;;;;;;;;;5035389;28;20627;-68
2023/07/21 11:43:49;;;;;;;3.43;3.23;;;;;;;;;;5041768;28;20620;-68
2023/07/21 11:46:24;;;;;;;3.77;3.03;;;;;;;;;;5040149;28;20996;-69
2023/07/21 11:48:54;;;;;;;3.20;3.10;;;;;;;;;;5039802;28;21012;-68
2023/07/21 11:51:23;;;;;;;2.97;2.87;;;;;;;;;;5038116;28;20660;-69
2023/07/21 11:53:51;;;;;;;3.60;3.40;;;;;;;;;;5039438;28;20619;-69
2023/07/21 11:56:21;;;;;;;3.00;2.80;;;;;;;;;;5037614;28;20620;-69
2023/07/21 11:58:49;;;;;;;3.70;3.37;;;;;;;;;;5040126;28;20612;-69
2023/07/21 12:01:17;;;;;;;3.37;3.23;;;;;;;;;;5040373;28;20623;-69
2023/07/21 12:03:45;;;;;;;3.63;3.43;;;;;;;;;;5038476;28;20998;-69
2023/07/21 12:06:13;;;;;;;4.03;3.60;;;;;;;;;;5040991;28;20638;-68
2023/07/21 12:08:42;;;;;;;3.53;3.23;;;;;;;;;;5035127;28;20693;-68
2023/07/21 12:11:10;;;;;;;7.63;3.10;;;;;;;;;;5033299;28;20674;-69
2023/07/21 12:13:40;;;;;;;2.83;2.73;;;;;;;;;;5036455;28;20620;-69
2023/07/21 12:16:09;;;;;;;3.50;3.30;;;;;;;;;;5032203;28;20624;-68
2023/07/21 12:18:38;;;;;;;3.87;3.57;;;;;;;;;;5042083;28;20620;-69
2023/07/21 12:21:07;;;;;;;3.07;2.87;;;;;;;;;;5038029;28;21293;-69
2023/07/21 12:23:36;;;;;;;3.27;3.10;;;;;;;;;;5036967;28;20621;-69
2023/07/21 12:26:05;;;;;;;2.97;2.87;;;;;;;;;;5038521;28;20681;-69
2023/07/21 12:28:33;;;;;;;3.30;3.00;;;;;;;;;;5030919;28;21196;-69
2023/07/21 12:31:03;;;;;;;4.50;3.50;;;;;;;;;;5031959;28;20997;-68
2023/07/21 12:33:31;;;;;;;3.63;3.17;;;;;;;;;;5031188;28;20611;-69
2023/07/21 12:35:59;;;;;;;3.53;3.33;;;;;;;;;;5032408;28;20622;-69
2023/07/21 12:38:27;;;;;;;3.60;3.17;;;;;;;;;;5030497;28;20616;-69
2023/07/21 12:40:56;;;;;;;3.30;3.07;;;;;;;;;;5043377;28;20619;-69
2023/07/21 12:43:24;;;;;;;3.50;3.17;;;;;;;;;;5034150;28;20631;-69
2023/07/21 12:45:52;;;;;;;8.23;3.33;;;;;;;;;;5032305;28;20624;-69
2023/07/21 12:48:22;;;;;;;3.30;3.00;;;;;;;;;;5030589;28;20620;-69
2023/07/21 12:51:08;;;;;;;2.53;2.43;;;;;;;;;;5032838;28;20548;-69
2023/07/21 12:53:37;;;;;;;3.30;3.10;;;;;;;;;;5030769;28;20612;-69
2023/07/21 12:56:05;;;;;;;3.53;3.00;;;;;;;;;;5048475;28;20614;-68
2023/07/21 12:58:33;;;;;;;3.87;3.43;;;;;;;;;;5050629;28;20957;-68
2023/07/21 13:01:01;;;;;;;3.37;3.17;;;;;;;;;;5044826;28;21003;-69
2023/07/21 13:03:31;;;;;;;4.77;2.80;;;;;;;;;;5031267;28;20619;-68
2023/07/21 13:05:59;;;;;;;2.87;2.77;;;;;;;;;;5041106;28;20631;-67
2023/07/21 13:08:28;;;;;;;2.90;2.77;;;;;;;;;;5038194;28;20618;-69
2023/07/21 13:10:56;;;;;;;3.00;2.70;;;;;;;;;;5039238;28;21221;-69
2023/07/21 13:13:24;;;;;;;3.33;3.13;;;;;;;;;;5035822;28;21192;-68
2023/07/21 13:15:52;;;;;;;2.83;2.63;;;;;;;;;;5031215;28;20618;-68
2023/07/21 13:18:21;;;;;;;3.30;3.10;;;;;;;;;;5030816;28;20619;-67
2023/07/21 13:20:50;;;;;;;3.00;2.90;;;;;;;;;;5030890;28;20654;-67
2023/07/21 13:23:18;;;;;;;2.50;2.40;;;;;;;;;;5030875;28;20599;-68
2023/07/21 13:25:46;;;;;;;6.30;2.67;;;;;;;;;;5040304;28;20974;-68
2023/07/21 13:28:15;;;;;;;3.77;2.73;;;;;;;;;;5041285;28;20615;-68
2023/07/21 13:30:43;;;;;;;7.73;3.20;;;;;;;;;;5040028;28;20673;-67
2023/07/21 13:33:11;;;;;;;3.67;3.40;;;;;;;;;;5039831;28;20663;-68
2023/07/21 13:35:39;;;;;;;3.07;2.87;;;;;;;;;;5042758;28;20615;-67
2023/07/21 13:38:09;;;;;;;3.60;2.83;;;;;;;;;;5044065;28;20634;-68
2023/07/21 13:40:37;;;;;;;2.20;2.10;;;;;;;;;;5042914;28;21184;-68
2023/07/21 13:43:05;;;;;;;6.43;2.83;;;;;;;;;;5043819;28;20681;-68
2023/07/21 13:45:33;;;;;;;2.97;2.27;;;;;;;;;;5025907;28;20629;-68
2023/07/21 13:48:02;;;;;;;2.73;2.63;;;;;;;;;;5045749;28;20650;-68
2023/07/21 13:50:30;;;;;;;2.70;2.50;;;;;;;;;;5042602;28;20628;-68
2023/07/21 13:52:58;;;;;;;5.30;2.57;;;;;;;;;;5050032;28;20933;-67
2023/07/21 13:55:29;;;;;;;4.93;2.73;;;;;;;;;;5047080;28;20676;-68
2023/07/21 13:57:57;;;;;;;2.30;2.20;;;;;;;;;;5027854;28;20976;-67
2023/07/21 14:00:25;;;;;;;3.23;3.00;;;;;;;;;;5036299;28;20964;-68
2023/07/21 14:02:53;;;;;;;6.10;2.83;;;;;;;;;;5037908;28;21185;-67
2023/07/21 14:05:22;;;;;;;3.20;2.90;;;;;;;;;;5035608;28;20626;-67
2023/07/21 14:07:50;;;;;;;2.70;2.37;;;;;;;;;;5035922;28;20608;-67
2023/07/21 14:10:18;;;;;;;3.37;3.00;;;;;;;;;;5049974;28;20661;-68
2023/07/21 14:12:48;;;;;;;2.87;2.33;;;;;;;;;;5044966;28;20663;-68
2023/07/21 14:15:16;;;;;;;2.60;2.50;;;;;;;;;;5049373;28;20625;-67
2023/07/21 14:17:45;;;;;;;4.13;2.10;;;;;;;;;;5047943;28;20624;-68
2023/07/21 14:20:14;;;;;;;3.70;2.67;;;;;;;;;;5034202;28;20615;-67
2023/07/21 14:22:42;;;;;;;2.37;2.20;;;;;;;;;;5052516;28;20611;-67
2023/07/21 14:25:10;;;;;;;3.43;3.00;;;;;;;;;;5053815;28;20614;-67
2023/07/21 14:27:39;;;;;;;3.40;2.90;;;;;;;;;;5053101;28;20618;-68
2023/07/21 14:30:09;;;;;;;3.43;2.90;;;;;;;;;;5053951;28;20692;-68
2023/07/21 14:32:38;;;;;;;2.90;2.70;;;;;;;;;;5053887;28;21065;-67
2023/07/21 14:35:09;;;;;;;2.90;2.73;;;;;;;;;;5035734;28;20612;-68
2023/07/21 14:37:37;;;;;;;3.40;3.13;;;;;;;;;;5033890;28;20600;-68
2023/07/21 14:40:11;;;;;;;5.73;2.83;;;;;;;;;;5033500;28;21175;-68
2023/07/21 14:42:39;;;;;;;3.03;2.83;;;;;;;;;;5045388;28;20655;-68
2023/07/21 14:45:10;;;;;;;3.90;2.70;;;;;;;;;;5053539;28;20615;-68
2023/07/21 14:47:39;;;;;;;5.23;3.50;;;;;;;;;;5045443;28;20611;-68
2023/07/21 14:50:07;;;;;;;3.93;3.63;;;;;;;;;;5037555;28;20633;-68
2023/07/21 14:52:35;;;;;;;3.53;3.33;;;;;;;;;;5047062;28;20662;-68
2023/07/21 14:55:09;;;;;;;3.20;3.00;;;;;;;;;;5032866;28;20632;-68
2023/07/21 14:57:37;;;;;;;5.30;3.07;;;;;;;;;;5033393;28;20616;-68
2023/07/21 15:00:09;;;;;;;3.67;3.37;;;;;;;;;;5033441;28;20946;-67
2023/07/21 15:02:39;;;;;;;3.37;3.17;;;;;;;;;;5031913;28;20588;-67